createdAt,value
2018-06-16T00:00:58.998Z,19.90
2018-06-16T00:03:27.262Z,12.10
2018-06-16T00:05:55.513Z,16.30
2018-06-16T00:08:23.648Z,20.67
2018-06-16T00:10:52.010Z,15.23
2018-06-16T00:13:20.138Z,16.10
2018-06-16T00:15:48.068Z,20.30
2018-06-16T00:18:16.222Z,18.03
2018-06-16T00:20:44.213Z,15.03
2018-06-16T00:23:12.203Z,15.83
2018-06-16T00:25:41.005Z,25.10
2018-06-16T00:28:08.960Z,15.67
2018-06-16T00:30:37.083Z,19.10
2018-06-16T00:33:05.121Z,13.47
2018-06-16T00:35:33.377Z,14.77
2018-06-16T00:38:01.545Z,12.80
2018-06-16T00:40:29.614Z,14.43
2018-06-16T00:42:57.637Z,18.90
2018-06-16T00:45:25.656Z,17.03
2018-06-16T00:47:53.749Z,20.53
2018-06-16T00:50:21.783Z,14.80
2018-06-16T00:52:49.835Z,22.77
2018-06-16T00:55:17.774Z,16.63
2018-06-16T00:57:46.951Z,20.10
2018-06-16T01:00:15.713Z,16.30
2018-06-16T01:02:43.664Z,14.57
2018-06-16T01:05:11.886Z,17.20
2018-06-16T01:07:39.905Z,16.27
2018-06-16T01:10:08.894Z,14.93
2018-06-16T01:12:36.972Z,21.30
2018-06-16T01:15:05.132Z,28.93
2018-06-16T01:17:33.400Z,13.10
2018-06-16T01:20:02.236Z,15.60
2018-06-16T01:22:30.942Z,12.43
2018-06-16T01:24:59.077Z,18.27
2018-06-16T01:27:27.436Z,14.40
2018-06-16T01:29:55.862Z,15.23
2018-06-16T01:32:23.812Z,16.87
2018-06-16T01:34:51.825Z,15.77
2018-06-16T01:37:20.244Z,19.50
2018-06-16T01:39:48.355Z,14.57
2018-06-16T01:42:16.295Z,12.47
2018-06-16T01:44:44.242Z,12.50
2018-06-16T01:47:12.214Z,15.40
2018-06-16T01:49:40.189Z,13.73
2018-06-16T01:52:08.676Z,19.30
2018-06-16T01:54:36.765Z,19.53
2018-06-16T01:57:05.109Z,12.20
2018-06-16T01:59:33.428Z,13.70
2018-06-16T02:02:01.609Z,11.03
2018-06-16T02:04:30.243Z,11.23
2018-06-16T02:06:58.268Z,13.40
2018-06-16T02:09:26.219Z,9.83
2018-06-16T02:11:54.184Z,12.67
2018-06-16T02:14:22.180Z,21.87
2018-06-16T02:16:50.225Z,13.77
2018-06-16T02:19:18.166Z,14.50
2018-06-16T02:21:46.228Z,11.83
2018-06-16T02:24:14.212Z,12.20
2018-06-16T02:26:42.158Z,13.80
2018-06-16T02:29:10.194Z,13.57
2018-06-16T02:31:38.141Z,16.33
2018-06-16T02:34:06.159Z,16.27
2018-06-16T02:36:34.600Z,13.03
2018-06-16T02:39:02.761Z,13.30
2018-06-16T02:41:30.765Z,21.93
2018-06-16T02:43:58.718Z,11.93
2018-06-16T02:46:26.689Z,11.23
2018-06-16T02:48:54.943Z,11.30
2018-06-16T02:51:22.872Z,9.63
2018-06-16T02:53:50.856Z,14.97
2018-06-16T02:56:18.953Z,10.20
2018-06-16T02:58:46.890Z,12.00
2018-06-16T03:01:14.873Z,11.77
2018-06-16T03:03:42.810Z,13.27
2018-06-16T03:06:10.780Z,14.57
2018-06-16T03:08:38.712Z,13.37
2018-06-16T03:11:07.750Z,13.60
2018-06-16T03:13:35.761Z,11.27
2018-06-16T03:16:03.803Z,10.27
2018-06-16T03:18:31.901Z,14.57
2018-06-16T03:20:59.929Z,9.40
2018-06-16T03:23:27.873Z,8.93
2018-06-16T03:25:55.871Z,10.87
2018-06-16T03:28:23.792Z,15.23
2018-06-16T03:30:51.745Z,9.27
2018-06-16T03:33:19.918Z,14.70
2018-06-16T03:35:47.888Z,11.13
2018-06-16T03:38:15.831Z,11.73
2018-06-16T03:40:43.905Z,13.93
2018-06-16T03:43:11.849Z,15.40
2018-06-16T03:45:39.915Z,9.10
2018-06-16T03:48:07.889Z,14.40
2018-06-16T03:50:36.113Z,13.80
2018-06-16T03:53:04.161Z,11.70
2018-06-16T03:55:32.329Z,9.83
2018-06-16T03:58:00.406Z,12.97
2018-06-16T04:00:28.402Z,12.60
2018-06-16T04:02:56.384Z,9.73
2018-06-16T04:05:24.529Z,11.30
2018-06-16T04:07:52.546Z,7.70
2018-06-16T04:10:20.571Z,14.07
2018-06-16T04:12:48.606Z,8.53
2018-06-16T04:15:16.549Z,10.70
2018-06-16T04:17:44.478Z,9.83
2018-06-16T04:20:12.429Z,19.93
2018-06-16T04:22:40.400Z,12.13
2018-06-16T04:25:08.354Z,9.70
2018-06-16T04:27:36.593Z,7.27
2018-06-16T04:30:04.915Z,7.53
2018-06-16T04:32:33.189Z,7.70
2018-06-16T04:35:01.658Z,10.73
2018-06-16T04:37:29.982Z,8.57
2018-06-16T04:39:57.998Z,6.60
2018-06-16T04:42:26.171Z,8.70
2018-06-16T04:44:54.205Z,8.53
2018-06-16T04:47:22.588Z,9.73
2018-06-16T04:49:50.776Z,10.17
2018-06-16T04:52:18.708Z,7.23
2018-06-16T04:54:46.641Z,7.80
2018-06-16T04:57:14.608Z,6.93
2018-06-16T04:59:42.532Z,7.37
2018-06-16T05:02:10.485Z,8.40
2018-06-16T05:04:38.832Z,6.50
2018-06-16T05:07:07.136Z,9.77
2018-06-16T05:09:35.370Z,6.63
2018-06-16T05:12:03.651Z,9.53
2018-06-16T05:14:31.858Z,8.23
2018-06-16T05:17:00.275Z,7.07
2018-06-16T05:19:28.209Z,13.10
2018-06-16T05:21:56.148Z,9.37
2018-06-16T05:24:24.723Z,9.93
2018-06-16T05:26:52.914Z,8.30
2018-06-16T05:29:20.996Z,11.90
2018-06-16T05:31:48.940Z,24.00
2018-06-16T05:34:16.911Z,10.70
2018-06-16T05:36:44.971Z,9.70
2018-06-16T05:39:12.916Z,13.23
2018-06-16T05:41:40.868Z,10.10
2018-06-16T05:44:08.906Z,11.50
2018-06-16T05:46:37.092Z,7.67
2018-06-16T05:49:05.337Z,13.47
2018-06-16T05:51:33.912Z,8.97
2018-06-16T05:54:02.240Z,11.60
2018-06-16T05:56:30.447Z,9.20
2018-06-16T05:58:58.653Z,14.43
2018-06-16T06:01:26.665Z,8.90
2018-06-16T06:03:54.653Z,8.93
2018-06-16T06:06:22.888Z,10.00
2018-06-16T06:08:51.246Z,18.73
2018-06-16T06:11:19.179Z,9.43
2018-06-16T06:13:47.741Z,10.33
2018-06-16T06:16:15.806Z,9.07
2018-06-16T06:18:43.750Z,8.20
2018-06-16T06:21:11.685Z,10.33
2018-06-16T06:23:39.657Z,7.90
2018-06-16T06:26:07.769Z,16.77
2018-06-16T06:28:35.902Z,11.23
2018-06-16T06:31:04.673Z,16.83
2018-06-16T06:33:33.126Z,8.87
2018-06-16T06:36:01.418Z,12.63
2018-06-16T06:38:29.530Z,7.90
2018-06-16T06:40:57.497Z,14.50
2018-06-16T06:43:26.077Z,10.23
2018-06-16T06:45:54.118Z,10.43
2018-06-16T06:48:22.569Z,7.60
2018-06-16T06:50:50.686Z,11.00
2018-06-16T06:53:19.037Z,8.93
2018-06-16T06:55:47.125Z,12.50
2018-06-16T06:58:15.146Z,8.83
2018-06-16T07:00:43.125Z,9.00
2018-06-16T07:03:11.085Z,9.73
2018-06-16T07:05:39.258Z,9.93
2018-06-16T07:08:07.354Z,6.43
2018-06-16T07:10:35.737Z,7.93
2018-06-16T07:13:04.626Z,7.30
2018-06-16T07:15:33.346Z,13.17
2018-06-16T07:18:02.890Z,7.73
2018-06-16T07:20:31.480Z,7.20
2018-06-16T07:22:59.780Z,7.70
2018-06-16T07:25:27.943Z,10.53
2018-06-16T07:27:56.254Z,10.40
2018-06-16T07:30:24.239Z,8.23
2018-06-16T07:32:52.586Z,10.50
2018-06-16T07:35:20.708Z,7.20
2018-06-16T07:37:49.068Z,15.57
2018-06-16T07:40:17.042Z,6.90
2018-06-16T07:42:45.237Z,15.17
2018-06-16T07:45:13.303Z,8.27
2018-06-16T07:47:41.352Z,9.23
2018-06-16T07:50:10.224Z,8.57
2018-06-16T07:52:38.661Z,8.03
2018-06-16T07:55:06.899Z,7.90
2018-06-16T07:57:35.283Z,7.40
2018-06-16T08:00:04.334Z,8.70
2018-06-16T08:02:33.406Z,7.10
2018-06-16T08:05:02.891Z,8.30
2018-06-16T08:07:32.874Z,9.60
2018-06-16T08:10:01.574Z,6.10
2018-06-16T08:12:30.177Z,8.03
2018-06-16T08:14:58.284Z,6.30
2018-06-16T08:17:26.692Z,7.60
2018-06-16T08:19:55.556Z,5.70
2018-06-16T08:22:23.518Z,9.33
2018-06-16T08:24:51.968Z,11.57
2018-06-16T08:27:20.440Z,9.70
2018-06-16T08:29:48.520Z,6.30
2018-06-16T08:32:16.537Z,7.17
2018-06-16T08:34:44.579Z,5.80
2018-06-16T08:37:12.661Z,8.63
2018-06-16T08:39:40.689Z,8.20
2018-06-16T08:42:08.731Z,10.07
2018-06-16T08:44:37.400Z,5.57
2018-06-16T08:47:05.714Z,11.53
2018-06-16T08:49:33.996Z,7.63
2018-06-16T08:52:02.438Z,10.20
2018-06-16T08:54:31.555Z,4.70
2018-06-16T08:56:59.685Z,6.80
2018-06-16T08:59:27.736Z,6.53
2018-06-16T09:01:57.087Z,8.63
2018-06-16T09:04:25.505Z,4.40
2018-06-16T09:06:53.710Z,5.30
2018-06-16T09:09:22.476Z,4.40
2018-06-16T09:11:50.707Z,6.17
2018-06-16T09:14:18.793Z,11.03
2018-06-16T09:16:46.745Z,4.97
2018-06-16T09:19:14.757Z,5.87
2018-06-16T09:21:42.800Z,11.30
2018-06-16T09:24:11.053Z,7.37
2018-06-16T09:26:40.039Z,5.30
2018-06-16T09:29:08.379Z,6.93
2018-06-16T09:31:36.881Z,7.40
2018-06-16T09:34:05.265Z,11.23
2018-06-16T09:36:33.984Z,8.30
2018-06-16T09:39:02.521Z,9.20
2018-06-16T09:41:31.915Z,5.33
2018-06-16T09:44:00.890Z,5.40
2018-06-16T09:46:29.613Z,6.73
2018-06-16T09:48:58.134Z,9.50
2018-06-16T09:51:26.109Z,6.27
2018-06-16T09:53:54.113Z,6.83
2018-06-16T09:56:22.058Z,13.47
2018-06-16T09:58:50.077Z,8.50
2018-06-16T10:01:18.036Z,5.67
2018-06-16T10:03:46.089Z,7.93
2018-06-16T10:06:14.270Z,6.47
2018-06-16T10:08:42.498Z,9.10
2018-06-16T10:11:10.841Z,7.37
2018-06-16T10:13:39.317Z,11.40
2018-06-16T10:16:07.462Z,5.90
2018-06-16T10:18:36.559Z,5.33
2018-06-16T10:21:06.256Z,8.13
2018-06-16T10:23:35.808Z,14.97
2018-06-16T10:26:06.540Z,6.90
2018-06-16T10:28:36.766Z,7.00
2018-06-16T10:31:05.392Z,5.97
2018-06-16T10:33:34.247Z,7.93
2018-06-16T10:36:02.796Z,5.93
2018-06-16T10:38:31.629Z,6.70
2018-06-16T10:41:00.604Z,4.47
2018-06-16T10:43:28.649Z,6.50
2018-06-16T10:45:57.047Z,4.47
2018-06-16T10:48:25.618Z,7.00
2018-06-16T10:50:53.770Z,6.50
2018-06-16T10:53:25.745Z,8.77
2018-06-16T10:55:53.827Z,6.43
2018-06-16T10:58:22.075Z,8.60
2018-06-16T11:00:51.777Z,6.33
2018-06-16T11:03:23.927Z,4.43
2018-06-16T11:05:54.238Z,5.90
2018-06-16T11:08:24.034Z,5.77
2018-06-16T11:10:52.070Z,8.60
2018-06-16T11:13:20.538Z,4.53
2018-06-16T11:15:48.660Z,11.03
2018-06-16T11:18:17.419Z,5.10
2018-06-16T11:20:45.482Z,4.33
2018-06-16T11:23:13.678Z,6.33
2018-06-16T11:25:42.074Z,5.00
2018-06-16T11:28:10.377Z,3.50
2018-06-16T11:30:39.150Z,5.33
2018-06-16T11:33:07.590Z,7.53
2018-06-16T11:35:36.659Z,6.37
2018-06-16T11:38:05.418Z,4.92
2018-06-16T11:40:35.008Z,5.50
2018-06-16T11:43:03.886Z,8.37
2018-06-16T11:45:32.525Z,5.20
2018-06-16T11:48:01.495Z,6.47
2018-06-16T11:50:30.776Z,7.70
2018-06-16T11:52:59.312Z,5.33
2018-06-16T11:55:27.605Z,9.30
2018-06-16T11:57:56.183Z,6.87
2018-06-16T12:00:24.210Z,7.00
2018-06-16T12:02:52.269Z,6.33
2018-06-16T12:05:20.266Z,4.43
2018-06-16T12:07:49.562Z,6.60
2018-06-16T12:10:20.618Z,7.33
2018-06-16T12:12:53.104Z,9.77
2018-06-16T12:15:21.446Z,11.23
2018-06-16T12:17:49.772Z,6.00
2018-06-16T12:20:19.805Z,9.23
2018-06-16T12:22:49.178Z,4.73
2018-06-16T12:25:17.389Z,4.53
2018-06-16T12:27:45.513Z,4.47
2018-06-16T12:30:13.555Z,6.90
2018-06-16T12:32:41.656Z,4.50
2018-06-16T12:35:11.204Z,6.97
2018-06-16T12:37:39.468Z,5.63
2018-06-16T12:40:07.941Z,4.93
2018-06-16T12:42:36.207Z,6.67
2018-06-16T12:45:05.278Z,5.80
2018-06-16T12:47:35.477Z,9.23
2018-06-16T12:50:06.123Z,4.40
2018-06-16T12:52:34.458Z,4.80
2018-06-16T12:55:03.117Z,4.87
2018-06-16T12:57:31.609Z,6.37
2018-06-16T13:00:00.664Z,4.30
2018-06-16T13:02:29.064Z,8.73
2018-06-16T13:04:57.441Z,10.67
2018-06-16T13:07:25.707Z,6.03
2018-06-16T13:09:53.703Z,5.60
2018-06-16T13:12:21.940Z,5.40
2018-06-16T13:14:50.008Z,8.10
2018-06-16T13:17:18.076Z,8.67
2018-06-16T13:19:46.151Z,4.73
2018-06-16T13:22:14.392Z,5.47
2018-06-16T13:24:43.005Z,8.07
2018-06-16T13:27:11.275Z,7.53
2018-06-16T13:29:39.676Z,5.17
2018-06-16T13:32:07.927Z,4.87
2018-06-16T13:34:36.518Z,11.10
2018-06-16T13:37:04.750Z,5.90
2018-06-16T13:39:34.014Z,6.57
2018-06-16T13:44:38.249Z,4.13
2018-06-16T13:47:06.754Z,5.37
2018-06-16T13:49:35.605Z,7.17
2018-06-16T13:52:04.608Z,5.30
2018-06-16T13:54:33.194Z,7.60
2018-06-16T13:57:04.113Z,5.83
2018-06-16T13:59:32.672Z,3.97
2018-06-16T14:02:02.577Z,9.23
2018-06-16T14:04:31.627Z,5.63
2018-06-16T14:06:59.963Z,4.50
2018-06-16T14:09:27.954Z,11.83
2018-06-16T14:11:55.941Z,5.03
2018-06-16T14:14:23.996Z,5.30
2018-06-16T14:16:52.125Z,4.30
2018-06-16T14:19:20.345Z,4.77
2018-06-16T14:21:48.306Z,7.60
2018-06-16T14:24:16.809Z,5.97
2018-06-16T14:26:45.023Z,4.30
2018-06-16T14:29:13.121Z,5.70
2018-06-16T14:31:41.313Z,4.03
2018-06-16T14:34:10.086Z,7.00
2018-06-16T14:36:38.461Z,4.63
2018-06-16T14:39:07.074Z,3.80
2018-06-16T14:41:35.613Z,4.30
2018-06-16T14:44:04.550Z,4.30
2018-06-16T14:46:32.768Z,5.37
2018-06-16T14:49:01.184Z,5.53
2018-06-16T14:51:29.626Z,4.77
2018-06-16T14:53:58.117Z,7.50
2018-06-16T14:56:26.200Z,4.00
2018-06-16T14:58:54.426Z,5.37
2018-06-16T15:01:22.437Z,8.23
2018-06-16T15:03:50.430Z,4.70
2018-06-16T15:06:18.548Z,10.43
2018-06-16T15:08:46.545Z,5.67
2018-06-16T15:11:14.917Z,6.60
2018-06-16T15:13:42.942Z,5.10
2018-06-16T15:16:11.365Z,6.43
2018-06-16T15:18:39.679Z,6.37
2018-06-16T15:21:08.176Z,7.10
2018-06-16T15:23:36.488Z,4.43
2018-06-16T15:26:05.025Z,6.13
2018-06-16T15:28:34.633Z,5.17
2018-06-16T15:31:03.458Z,4.50
2018-06-16T15:33:32.030Z,4.97
2018-06-16T15:36:00.864Z,4.77
2018-06-16T15:38:29.402Z,5.00
2018-06-16T15:40:57.488Z,7.63
2018-06-16T15:43:25.618Z,7.30
2018-06-16T15:45:54.322Z,5.93
2018-06-16T15:48:22.449Z,11.20
2018-06-16T15:50:50.540Z,8.03
2018-06-16T15:53:18.577Z,9.43
2018-06-16T15:55:48.844Z,5.70
2018-06-16T15:58:16.993Z,6.00
2018-06-16T16:00:45.102Z,9.90
2018-06-16T16:03:13.150Z,5.47
2018-06-16T16:05:41.876Z,5.93
2018-06-16T16:08:10.164Z,8.50
2018-06-16T16:10:38.473Z,4.80
2018-06-16T16:13:07.032Z,10.90
2018-06-16T16:15:35.283Z,5.00
2018-06-16T16:18:03.788Z,8.47
2018-06-16T16:20:34.354Z,4.40
2018-06-16T16:23:03.024Z,7.00
2018-06-16T16:25:31.957Z,5.10
2018-06-16T16:28:00.463Z,5.10
2018-06-16T16:30:28.668Z,7.00
2018-06-16T16:32:57.191Z,10.93
2018-06-16T16:35:25.918Z,12.50
2018-06-16T16:37:54.099Z,7.60
2018-06-16T16:40:22.265Z,9.60
2018-06-16T16:42:50.453Z,5.60
2018-06-16T16:45:18.392Z,5.70
2018-06-16T16:47:46.475Z,6.37
2018-06-16T16:50:14.666Z,5.00
2018-06-16T16:52:42.718Z,4.83
2018-06-16T16:55:10.930Z,8.23
2018-06-16T16:57:38.922Z,6.10
2018-06-16T17:00:07.058Z,4.63
2018-06-16T17:02:35.921Z,5.77
2018-06-16T17:05:04.853Z,4.73
2018-06-16T17:07:33.816Z,6.10
2018-06-16T17:10:02.602Z,7.37
2018-06-16T17:12:30.942Z,5.20
2018-06-16T17:14:59.257Z,5.53
2018-06-16T17:17:28.078Z,5.20
2018-06-16T17:19:56.698Z,10.60
2018-06-16T17:22:25.181Z,10.50
2018-06-16T17:24:53.365Z,6.30
2018-06-16T17:27:21.730Z,8.00
2018-06-16T17:29:49.891Z,7.20
2018-06-16T17:32:18.038Z,12.93
2018-06-16T17:34:47.331Z,9.10
2018-06-16T17:37:15.330Z,7.30
2018-06-16T17:39:43.525Z,10.33
2018-06-16T17:42:11.540Z,11.60
2018-06-16T17:44:40.586Z,9.13
2018-06-16T17:47:08.967Z,6.77
2018-06-16T17:49:37.098Z,6.40
2018-06-16T17:52:05.510Z,7.03
2018-06-16T17:54:33.781Z,8.80
2018-06-16T17:57:02.253Z,11.00
2018-06-16T17:59:30.641Z,11.90
2018-06-16T18:01:59.615Z,7.80
2018-06-16T18:04:27.701Z,6.57
2018-06-16T18:06:55.879Z,7.90
2018-06-16T18:09:24.366Z,10.90
2018-06-16T18:11:53.441Z,7.57
2018-06-16T18:14:21.482Z,7.63
2018-06-16T18:16:49.607Z,5.80
2018-06-16T18:19:17.666Z,11.07
2018-06-16T18:21:46.156Z,8.50
2018-06-16T18:24:14.118Z,11.57
2018-06-16T18:26:43.185Z,10.30
2018-06-16T18:29:11.277Z,10.93
2018-06-16T18:31:39.641Z,8.73
2018-06-16T18:34:07.920Z,7.80
2018-06-16T18:36:37.219Z,10.60
2018-06-16T18:39:07.547Z,7.07
2018-06-16T18:41:35.934Z,7.87
2018-06-16T18:44:05.130Z,11.20
2018-06-16T18:46:33.598Z,8.73
2018-06-16T18:49:01.888Z,7.20
2018-06-16T18:51:30.285Z,9.60
2018-06-16T18:53:58.361Z,6.93
2018-06-16T18:56:26.493Z,14.03
2018-06-16T18:58:54.701Z,12.27
2018-06-16T19:01:22.882Z,8.67
2018-06-16T19:03:51.223Z,7.60
2018-06-16T19:06:19.254Z,10.63
2018-06-16T19:08:47.780Z,9.03
2018-06-16T19:11:15.894Z,9.57
2018-06-16T19:13:43.844Z,14.60
2018-06-16T19:16:11.894Z,8.27
2018-06-16T19:18:39.867Z,7.37
2018-06-16T19:21:08.477Z,11.40
2018-06-16T19:23:37.646Z,9.80
2018-06-16T19:26:06.007Z,10.90
2018-06-16T19:28:34.959Z,9.07
2018-06-16T19:31:03.476Z,17.03
2018-06-16T19:33:31.792Z,9.80
2018-06-16T19:36:00.291Z,9.60
2018-06-16T19:38:28.361Z,7.77
2018-06-16T19:40:57.309Z,15.93
2018-06-16T19:43:25.448Z,9.07
2018-06-16T19:45:53.389Z,10.97
2018-06-16T19:48:21.364Z,7.80
2018-06-16T19:50:49.280Z,16.57
2018-06-16T19:53:17.547Z,12.00
2018-06-16T19:55:45.649Z,11.93
2018-06-16T19:58:13.650Z,10.70
2018-06-16T20:00:41.663Z,11.47
2018-06-16T20:03:09.944Z,15.17
2018-06-16T20:05:38.386Z,11.67
2018-06-16T20:08:06.877Z,12.77
2018-06-16T20:10:35.397Z,15.60
2018-06-16T20:13:03.855Z,13.37
2018-06-16T20:15:32.935Z,12.80
2018-06-16T20:18:01.167Z,15.30
2018-06-16T20:20:29.815Z,16.50
2018-06-16T20:22:58.481Z,11.13
2018-06-16T20:25:26.739Z,17.97
2018-06-16T20:27:54.877Z,16.43
2018-06-16T20:30:23.265Z,18.00
2018-06-16T20:32:52.027Z,24.63
2018-06-16T20:35:20.296Z,14.90
2018-06-16T20:37:48.472Z,11.80
2018-06-16T20:40:16.411Z,14.67
2018-06-16T20:42:44.731Z,12.73
2018-06-16T20:45:12.779Z,14.90
2018-06-16T20:47:47.997Z,15.97
2018-06-16T20:50:15.957Z,14.73
2018-06-16T20:52:47.329Z,17.20
2018-06-16T20:55:15.392Z,17.17
2018-06-16T20:57:44.099Z,13.47
2018-06-16T21:00:12.239Z,13.83
2018-06-16T21:02:40.209Z,16.07
2018-06-16T21:05:08.818Z,15.93
2018-06-16T21:07:36.918Z,15.73
2018-06-16T21:10:05.509Z,15.20
2018-06-16T21:12:33.687Z,12.83
2018-06-16T21:15:01.964Z,16.93
2018-06-16T21:17:30.368Z,22.53
2018-06-16T21:19:58.588Z,18.20
2018-06-16T21:22:27.098Z,13.40
2018-06-16T21:24:55.126Z,19.87
2018-06-16T21:27:23.499Z,14.70
2018-06-16T21:29:51.688Z,19.20
2018-06-16T21:32:20.139Z,12.60
2018-06-16T21:34:48.729Z,13.27
2018-06-16T21:37:16.715Z,17.30
2018-06-16T21:39:44.760Z,17.33
2018-06-16T21:42:12.860Z,17.20
2018-06-16T21:44:40.815Z,15.30
2018-06-16T21:47:08.768Z,15.17
2018-06-16T21:49:37.038Z,16.50
2018-06-16T21:52:05.275Z,13.27
2018-06-16T21:54:33.797Z,16.27
2018-06-16T21:57:02.136Z,12.97
2018-06-16T21:59:30.778Z,18.10
2018-06-16T22:01:58.847Z,12.77
2018-06-16T22:04:27.486Z,13.87
2018-06-16T22:06:55.565Z,17.70
2018-06-16T22:09:23.845Z,24.97
2018-06-16T22:11:51.822Z,28.10
2018-06-16T22:14:19.955Z,15.83
2018-06-16T22:16:47.992Z,14.07
2018-06-16T22:19:15.961Z,21.10
2018-06-16T22:21:43.916Z,18.60
2018-06-16T22:24:12.066Z,22.13
2018-06-16T22:26:40.323Z,18.33
2018-06-16T22:29:08.597Z,14.23
2018-06-16T22:31:36.736Z,18.40
2018-06-16T22:34:04.801Z,16.40
2018-06-16T22:36:33.025Z,20.07
2018-06-16T22:39:01.263Z,18.27
2018-06-16T22:41:29.366Z,25.93
2018-06-16T22:43:57.392Z,24.33
2018-06-16T22:46:26.555Z,18.23
2018-06-16T22:48:54.806Z,18.10
2018-06-16T22:51:22.866Z,17.07
2018-06-16T22:53:51.084Z,17.17
2018-06-16T22:56:19.136Z,19.33
2018-06-16T22:58:47.242Z,19.07
2018-06-16T23:01:15.189Z,20.00
2018-06-16T23:03:43.148Z,17.73
2018-06-16T23:06:11.697Z,17.00
2018-06-16T23:08:39.957Z,24.17
2018-06-16T23:11:08.124Z,16.07
2018-06-16T23:13:36.415Z,19.23
2018-06-16T23:16:05.122Z,22.53
2018-06-16T23:18:33.613Z,20.67
2018-06-16T23:21:02.441Z,17.60
2018-06-16T23:23:30.565Z,25.43
2018-06-16T23:25:59.127Z,17.53
2018-06-16T23:28:27.702Z,28.83
2018-06-16T23:30:55.712Z,19.97
2018-06-16T23:33:23.794Z,19.83
2018-06-16T23:35:51.768Z,22.57
2018-06-16T23:38:20.058Z,21.70
2018-06-16T23:40:48.099Z,18.23
2018-06-16T23:43:16.049Z,15.47
2018-06-16T23:45:44.191Z,19.03
2018-06-16T23:48:12.180Z,17.83
2018-06-16T23:50:40.288Z,16.87
2018-06-16T23:53:08.673Z,23.03
2018-06-16T23:55:36.737Z,20.13
2018-06-16T23:58:04.725Z,20.57
